Weather reports worldwide

Advertisment
Logan Botanic Garden, United Kingdom (99193): temperature & dewpoint: 18.06.2017 04:00:00 - 24.06.2017 04:00:00 (BST)Logan Botanic Garden, United Kingdom (99193): temperature 5cm: 18.06.2017 04:00:00 - 24.06.2017 04:00:00 (BST)Logan Botanic Garden, United Kingdom (99193): temperature -20cm: 18.06.2017 04:00:00 - 24.06.2017 04:00:00 (BST)Logan Botanic Garden, United Kingdom (99193): visibility: 18.06.2017 04:00:00 - 24.06.2017 04:00:00 (BST)Logan Botanic Garden, United Kingdom (99193): precipitation: 18.06.2017 04:00:00 - 24.06.2017 04:00:00 (BST)
Date & Time tt [°C] td [°C] tt 5cm [°C] tt -20cm [°C] vv [km] rr [mm]
24.06.2017 04:00:00 - - - - - 0,0
24.06.2017 03:00:00 11,6 7,6 - - - 0,0
24.06.2017 02:00:00 12,0 8,6 - - - 0,0
24.06.2017 01:00:00 11,0 9,5 - - - 0,0
24.06.2017 00:00:00 9,7 8,0 - - - 0,0
23.06.2017 23:00:00 11,4 8,4 - - - 0,0
23.06.2017 22:00:00 11,5 8,7 - - 10 0,0
23.06.2017 21:00:00 13,2 9,1 - - - 0,0
23.06.2017 20:00:00 14,2 9,3 - - - 0,0
23.06.2017 19:00:00 14,7 11,4 - - - 0,0
23.06.2017 18:00:00 14,6 11,3 - - - 0,0
23.06.2017 17:00:00 15,2 11,9 - - - 0,0
23.06.2017 16:00:00 15,3 12,9 - - - 0,0
23.06.2017 15:00:00 14,7 13,0 - - - 0,0
23.06.2017 14:00:00 14,0 12,9 - - - 0,0
23.06.2017 13:00:00 13,6 12,9 - - - 0,2
23.06.2017 12:00:00 13,7 13,0 - - - 0,0
23.06.2017 11:00:00 14,4 13,5 - - - 0,0
23.06.2017 10:00:00 13,6 12,9 - 16,5 2,1 0,0
23.06.2017 09:00:00 13,4 12,7 - - - 0,0
23.06.2017 08:00:00 13,2 12,2 - - - 0,0
23.06.2017 07:00:00 13,0 12,2 - - - 0,0
23.06.2017 06:00:00 12,6 12,0 - - - 0,0
23.06.2017 05:00:00 12,5 11,8 - - - 4,2
23.06.2017 04:00:00 12,7 11,7 - - - 3,4
23.06.2017 03:00:00 12,9 11,7 - - - 1,2
23.06.2017 02:00:00 12,8 11,6 - - - 0,6
23.06.2017 01:00:00 13,0 11,1 - - - 0,0
23.06.2017 00:00:00 13,3 10,9 - - - 0,0
22.06.2017 23:00:00 13,3 10,8 - - - 0,0
22.06.2017 22:00:00 13,4 11,5 - - - 0,0
22.06.2017 21:00:00 13,8 11,5 - - - 0,0
22.06.2017 20:00:00 14,3 10,9 - - - 0,0
22.06.2017 19:00:00 13,8 10,8 - - - 0,0
22.06.2017 18:00:00 13,6 10,2 - - - 0,0
22.06.2017 17:00:00 15,7 9,8 - - - 0,0
22.06.2017 16:00:00 16,3 9,7 - - - 0,0
22.06.2017 15:00:00 15,3 8,8 - - - 0,0
22.06.2017 14:00:00 15,2 9,8 - - - 0,0
22.06.2017 13:00:00 13,9 8,9 - - - 0,0
22.06.2017 12:00:00 13,7 8,4 - - - 0,0
22.06.2017 11:00:00 13,8 9,1 - - - 0,0
22.06.2017 10:00:00 14,3 10,2 - 16,7 2,4 0,0
22.06.2017 09:00:00 12,8 11,5 - - - 0,0
22.06.2017 08:00:00 12,5 11,6 - - - 0,0
22.06.2017 07:00:00 12,5 12,1 - - - 0,0
22.06.2017 06:00:00 12,6 12,3 - - - 0,0
22.06.2017 05:00:00 12,9 12,4 - - - 0,0
22.06.2017 04:00:00 12,9 12,3 - - - 0,0
22.06.2017 03:00:00 13,2 12,4 - - - 0,0
22.06.2017 02:00:00 14,0 12,6 - - - 0,0
22.06.2017 01:00:00 15,1 12,5 - - - 0,0
22.06.2017 00:00:00 15,2 12,7 - - - 0,0
21.06.2017 23:00:00 15,3 13,9 - - - 0,0
21.06.2017 22:00:00 15,2 13,6 - - - 0,0
21.06.2017 21:00:00 18,3 15,9 - - - 0,0
21.06.2017 20:00:00 19,0 16,4 - - - 0,0
21.06.2017 19:00:00 18,9 16,3 - - - 0,0
21.06.2017 18:00:00 19,3 16,7 - - - 0,0
21.06.2017 17:00:00 19,3 17,0 - - - 0,0
21.06.2017 16:00:00 17,8 16,1 - - - 0,0
21.06.2017 15:00:00 18,1 16,7 - - - 0,0
21.06.2017 14:00:00 17,0 16,4 - - - 0,0
21.06.2017 13:00:00 15,6 14,8 - - - 0,2
21.06.2017 12:00:00 16,1 15,0 - - - 0,0
21.06.2017 11:00:00 16,7 15,8 - - - 0,0
21.06.2017 10:00:00 15,8 15,0 16,4 16,7 1,7 0,0
21.06.2017 09:00:00 15,4 14,6 - - - 0,0
21.06.2017 08:00:00 14,9 14,2 - - - 0,0
21.06.2017 07:00:00 15,0 14,2 - - - 0,0
21.06.2017 06:00:00 15,1 14,1 - - - 0,0
21.06.2017 05:00:00 15,2 13,9 - - - 0,0
21.06.2017 04:00:00 15,4 14,0 - - - 0,0
21.06.2017 03:00:00 15,6 13,9 - - - 0,0
21.06.2017 02:00:00 15,8 13,9 - - - 0,0
21.06.2017 01:00:00 16,3 14,8 - - - 0,0
21.06.2017 00:00:00 16,3 14,7 - - - 0,0
20.06.2017 23:00:00 14,4 12,7 - - - 0,0
20.06.2017 22:00:00 15,6 13,0 - - - 0,0
20.06.2017 21:00:00 16,9 13,1 - - - 0,0
20.06.2017 20:00:00 18,1 13,3 - - - 0,0
20.06.2017 19:00:00 19,2 13,5 - - - 0,0
20.06.2017 18:00:00 20,1 13,9 - - - 0,0
20.06.2017 17:00:00 18,6 11,8 - - - 0,0
20.06.2017 16:00:00 18,2 11,8 - - - 0,0
20.06.2017 15:00:00 17,5 11,4 - - - 0,0
20.06.2017 14:00:00 18,0 11,1 - - - 0,0
20.06.2017 13:00:00 17,0 11,0 - - - 0,0
20.06.2017 12:00:00 17,0 11,9 - - - 0,0
20.06.2017 11:00:00 16,6 10,6 - - - 0,0
20.06.2017 10:00:00 16,4 8,6 16,4 16,4 15 0,0
20.06.2017 09:00:00 14,4 9,0 - - - 0,0
20.06.2017 08:00:00 13,2 8,0 - - - 0,0
20.06.2017 07:00:00 11,6 7,8 - - - 0,0
20.06.2017 06:00:00 10,4 8,1 - - - 0,0
20.06.2017 05:00:00 9,3 8,0 - - - 0,0
20.06.2017 04:00:00 10,0 8,6 - - - 0,0
20.06.2017 03:00:00 10,0 8,7 - - - 0,0
20.06.2017 02:00:00 10,8 9,1 - - - 0,0
20.06.2017 01:00:00 11,7 9,6 - - - 0,0
20.06.2017 00:00:00 12,4 9,7 - - - 0,0
19.06.2017 23:00:00 12,9 10,4 - - - 0,0
19.06.2017 22:00:00 13,7 10,6 - - - 0,0
19.06.2017 21:00:00 14,3 10,9 - - - 0,0
19.06.2017 20:00:00 15,5 11,3 - - - 0,0
19.06.2017 19:00:00 16,6 12,1 - - - 0,0
19.06.2017 18:00:00 18,0 12,6 - - - 0,0
19.06.2017 17:00:00 18,6 12,6 - - - 0,0
19.06.2017 16:00:00 18,4 13,2 - - - 0,0
19.06.2017 15:00:00 19,1 14,1 - - - 0,0
19.06.2017 14:00:00 18,8 15,4 - - - 0,0
19.06.2017 13:00:00 17,5 13,4 - - - 0,0
19.06.2017 12:00:00 18,2 13,3 - - - 0,0
19.06.2017 11:00:00 18,5 12,8 - - - 0,0
19.06.2017 10:00:00 17,6 15,3 17,6 16,0 50 0,0
19.06.2017 09:00:00 16,0 14,3 - - - 0,0
19.06.2017 08:00:00 14,4 14,2 - - - 0,0
19.06.2017 07:00:00 14,3 14,2 - - - 0,0
19.06.2017 06:00:00 13,1 13,0 - - - 0,0
19.06.2017 05:00:00 11,7 11,4 - - - 0,0
19.06.2017 04:00:00 11,6 11,3 - - - 0,0
19.06.2017 03:00:00 11,6 11,2 - - - 0,0
19.06.2017 02:00:00 11,8 11,4 - - - 0,0
19.06.2017 01:00:00 11,9 11,4 - - - 0,0
19.06.2017 00:00:00 12,7 12,1 - - - 0,0
18.06.2017 23:00:00 13,0 12,1 - - - 0,0
18.06.2017 22:00:00 14,1 12,7 - - - 0,0
18.06.2017 21:00:00 15,4 13,3 - - - 0,0
18.06.2017 20:00:00 16,6 12,7 - - - 0,0
18.06.2017 19:00:00 17,5 12,4 - - - 0,0
18.06.2017 18:00:00 18,6 14,6 - - - 0,0
18.06.2017 17:00:00 17,9 14,2 - - - 0,0
18.06.2017 16:00:00 17,3 14,2 - - - 0,0
18.06.2017 15:00:00 17,4 14,5 - - - 0,0
18.06.2017 14:00:00 16,6 12,9 - - - 0,0
18.06.2017 13:00:00 18,8 15,2 - - - 0,0
18.06.2017 12:00:00 18,4 15,8 - - - 0,0
18.06.2017 11:00:00 17,8 14,7 - - - 0,0
18.06.2017 10:00:00 16,9 14,5 17,0 15,4 50 0,0
18.06.2017 09:00:00 16,9 14,4 - - - 0,0
18.06.2017 08:00:00 15,0 14,1 - - - 0,0
18.06.2017 07:00:00 13,6 13,4 - - - 0,0
18.06.2017 06:00:00 11,6 11,3 - - - 0,0
18.06.2017 05:00:00 11,0 10,5 - - - 0,0
18.06.2017 04:00:00 11,4 10,8 - - - 0,0

tt = temperature
td = dewpoint
tt 5cm = temperature 5cm
tt -20cm = temperature -20cm
vv = visibility
rr = precipitation

Next stations